Time;durP1;ratioP1;P1;durP2;ratioP2;P2;SDS_P1;SDS_P2;PMS_P1;PMS_P2;Temp;Humidity;BMP_temperature;BMP_pressure;BME280_temperature;BME280_humidity;BME280_pressure;Samples;Min_cycle;Max_cycle;Signal;HPM_P1;HPM_P2
2021/07/24 00:00:59;;;;;;;16.42;9.88;;;;;;;;;;2066599;28;99840;-18
2021/07/24 00:02:00;;;;;;;;;;;;;;;;;;2066427;28;99877;-14
2021/07/24 00:03:01;;;;;;;17.10;9.98;;;;;;;;;;2066762;28;99855;-15
2021/07/24 00:04:02;;;;;;;16.50;10.18;;;;;;;;;;2066533;28;99896;-17
2021/07/24 00:05:04;;;;;;;17.75;9.60;;;;;;;;;;2066576;28;100246;-15
2021/07/24 00:06:06;;;;;;;15.75;9.90;;;;;;;;;;2065776;28;99981;-14
2021/07/24 00:07:07;;;;;;;14.07;8.80;;;;;;;;;;2066174;28;99940;-16
2021/07/24 00:08:07;;;;;;;;;;;;;;;;;;2066916;28;99926;-17
2021/07/24 00:09:08;;;;;;;15.98;9.60;;;;;;;;;;2066245;28;99963;-17
2021/07/24 00:10:09;;;;;;;15.30;9.07;;;;;;;;;;2057581;28;99990;-13
2021/07/24 00:11:11;;;;;;;14.77;9.23;;;;;;;;;;2057839;28;99945;-17
2021/07/24 00:12:12;;;;;;;13.23;8.82;;;;;;;;;;2065783;28;99868;-16
2021/07/24 00:13:13;;;;;;;17.75;8.80;;;;;;;;;;2066563;28;100060;-17
2021/07/24 00:14:14;;;;;;;14.95;9.07;;;;;;;;;;2057157;28;99946;-15
2021/07/24 00:15:15;;;;;;;13.52;8.85;;;;;;;;;;2049858;28;100060;-14
2021/07/24 00:16:17;;;;;;;14.90;8.63;;;;;;;;;;2065371;28;100330;-14
2021/07/24 00:17:18;;;;;;;;;;;;;;;;;;2066715;28;99967;-15
2021/07/24 00:18:19;;;;;;;15.90;8.38;;;;;;;;;;2065656;28;99859;-14
2021/07/24 00:19:20;;;;;;;13.77;8.65;;;;;;;;;;2057553;28;99850;-14
2021/07/24 00:20:26;;;;;;;17.13;9.38;;;;;;;;;;2057872;28;100021;-18
2021/07/24 00:21:27;;;;;;;15.30;8.90;;;;;;;;;;2057569;28;100024;-15
2021/07/24 00:22:29;;;;;;;13.13;8.82;;;;;;;;;;2057370;28;100085;-19
2021/07/24 00:23:30;;;;;;;13.15;8.48;;;;;;;;;;2057419;28;100259;-18
2021/07/24 00:24:31;;;;;;;14.55;8.68;;;;;;;;;;2057108;28;100220;-19
2021/07/24 00:25:42;;;;;;;13.70;8.23;;;;;;;;;;2066070;28;99966;-17
2021/07/24 00:26:43;;;;;;;12.38;8.02;;;;;;;;;;2065969;28;99808;-17
2021/07/24 00:27:44;;;;;;;10.60;7.97;;;;;;;;;;2057551;28;99911;-15
2021/07/24 00:28:45;;;;;;;15.65;8.63;;;;;;;;;;2057654;28;99908;-17
2021/07/24 00:29:46;;;;;;;9.95;7.05;;;;;;;;;;2057608;28;99910;-16
2021/07/24 00:30:47;;;;;;;;;;;;;;;;;;2058007;28;100253;-15
2021/07/24 00:31:53;;;;;;;10.60;7.30;;;;;;;;;;2065849;28;100256;-19
2021/07/24 00:32:55;;;;;;;13.15;7.95;;;;;;;;;;2065330;28;100081;-16
2021/07/24 00:33:57;;;;;;;14.32;8.13;;;;;;;;;;2065577;28;100018;-17
2021/07/24 00:34:58;;;;;;;12.80;7.60;;;;;;;;;;2065677;28;99911;-15
2021/07/24 00:35:59;;;;;;;12.70;7.20;;;;;;;;;;2066075;28;99893;-15
2021/07/24 00:37:00;;;;;;;;;;;;;;;;;;2066294;28;99913;-15
2021/07/24 00:38:02;;;;;;;12.43;7.38;;;;;;;;;;2065831;28;99938;-15
2021/07/24 00:39:05;;;;;;;12.50;7.10;;;;;;;;;;2065816;28;100337;-16
2021/07/24 00:40:13;;;;;;;11.70;7.00;;;;;;;;;;2066133;28;99933;-16
2021/07/24 00:41:30;;;;;;;11.98;6.90;;;;;;;;;;2066328;28;99956;-17
2021/07/24 00:42:33;;;;;;;11.50;6.90;;;;;;;;;;2065504;28;99939;-17
2021/07/24 00:43:35;;;;;;;10.10;6.63;;;;;;;;;;2057204;28;100044;-16
2021/07/24 00:44:38;;;;;;;10.27;7.22;;;;;;;;;;2065675;28;99975;-16
2021/07/24 00:45:46;;;;;;;10.95;7.10;;;;;;;;;;2066548;28;99786;-15
2021/07/24 00:46:47;;;;;;;11.30;6.82;;;;;;;;;;2057462;28;99946;-18
2021/07/24 00:47:52;;;;;;;10.13;7.07;;;;;;;;;;2049644;28;99953;-18
2021/07/24 00:49:13;;;;;;;8.95;6.75;;;;;;;;;;2066163;28;99922;-15
2021/07/24 00:50:34;;;;;;;12.15;7.63;;;;;;;;;;2065901;28;100018;-17
2021/07/24 00:51:37;;;;;;;;;;;;;;;;;;2066752;28;99906;-16
2021/07/24 00:52:41;;;;;;;14.63;7.07;;;;;;;;;;2066309;28;99920;-13
2021/07/24 00:53:42;;;;;;;8.77;6.38;;;;;;;;;;2065924;28;99997;-16
2021/07/24 00:54:43;;;;;;;;;;;;;;;;;;2065829;28;100213;-13
2021/07/24 00:55:43;;;;;;;10.35;6.50;;;;;;;;;;2065531;28;100044;-16
2021/07/24 00:56:44;;;;;;;;;;;;;;;;;;2066034;28;100081;-12
2021/07/24 00:57:45;;;;;;;10.30;6.45;;;;;;;;;;2065759;28;100038;-12
2021/07/24 00:58:46;;;;;;;8.95;6.38;;;;;;;;;;2065782;28;100038;-15
2021/07/24 00:59:47;;;;;;;;;;;;;;;;;;2065690;28;100049;-15
2021/07/24 01:00:48;;;;;;;8.07;6.13;;;;;;;;;;2065344;28;100047;-15
2021/07/24 01:01:51;;;;;;;7.25;5.63;;;;;;;;;;2065346;28;100084;-16
2021/07/24 01:02:52;;;;;;;8.07;5.85;;;;;;;;;;2065619;28;99988;-13
2021/07/24 01:03:54;;;;;;;9.38;6.15;;;;;;;;;;2057432;28;100055;-15
2021/07/24 01:05:00;;;;;;;9.82;5.90;;;;;;;;;;2057505;28;100013;-15
2021/07/24 01:06:01;;;;;;;9.60;6.60;;;;;;;;;;2065576;28;99888;-14
2021/07/24 01:07:05;;;;;;;8.82;5.78;;;;;;;;;;2066218;28;100198;-14
2021/07/24 01:08:06;;;;;;;7.53;6.68;;;;;;;;;;2065247;28;100129;-15
2021/07/24 01:09:07;;;;;;;10.95;6.55;;;;;;;;;;2057402;28;100012;-17
2021/07/24 01:10:08;;;;;;;;;;;;;;;;;;2057526;28;99907;-13
2021/07/24 01:11:13;;;;;;;9.27;5.97;;;;;;;;;;2065482;28;100392;-13
2021/07/24 01:12:14;;;;;;;7.88;5.57;;;;;;;;;;2065687;28;99998;-14
2021/07/24 01:13:17;;;;;;;10.30;6.55;;;;;;;;;;2057558;28;100041;-14
2021/07/24 01:14:19;;;;;;;8.55;5.50;;;;;;;;;;2057285;28;100181;-16
2021/07/24 01:15:21;;;;;;;8.25;5.57;;;;;;;;;;2057323;28;100053;-12
2021/07/24 01:16:22;;;;;;;7.60;5.97;;;;;;;;;;2057202;28;100069;-14
2021/07/24 01:17:25;;;;;;;9.10;6.03;;;;;;;;;;2057476;28;100156;-12
2021/07/24 01:18:27;;;;;;;8.18;5.63;;;;;;;;;;2065669;28;100476;-12
2021/07/24 01:19:28;;;;;;;9.07;5.43;;;;;;;;;;2065626;28;100027;-15
2021/07/24 01:20:32;;;;;;;6.93;5.60;;;;;;;;;;2057276;28;99987;-14
2021/07/24 01:21:33;;;;;;;8.05;5.90;;;;;;;;;;2065502;28;99935;-13
2021/07/24 01:22:35;;;;;;;7.43;5.57;;;;;;;;;;2065621;28;99935;-13
2021/07/24 01:23:38;;;;;;;7.20;5.78;;;;;;;;;;2057350;28;100039;-15
2021/07/24 01:24:40;;;;;;;7.85;6.00;;;;;;;;;;2057375;28;100169;-13
2021/07/24 01:25:48;;;;;;;7.93;5.68;;;;;;;;;;2057350;28;99997;-13
2021/07/24 01:26:50;;;;;;;8.63;5.88;;;;;;;;;;2057804;28;100021;-13
2021/07/24 01:27:53;;;;;;;6.65;5.10;;;;;;;;;;2057656;28;99937;-15
2021/07/24 01:28:56;;;;;;;7.63;5.68;;;;;;;;;;2057158;28;100119;-13
2021/07/24 01:30:00;;;;;;;9.07;5.72;;;;;;;;;;2065466;28;99976;-14
2021/07/24 01:31:09;;;;;;;7.65;5.65;;;;;;;;;;2065457;28;100028;-13
2021/07/24 01:32:15;;;;;;;9.60;5.45;;;;;;;;;;2066105;28;99953;-13
2021/07/24 01:33:16;;;;;;;7.75;5.72;;;;;;;;;;2065425;28;99972;-13
2021/07/24 01:34:18;;;;;;;8.32;5.60;;;;;;;;;;2057291;28;100030;-14
2021/07/24 01:35:19;;;;;;;7.95;5.30;;;;;;;;;;2065419;28;99984;-15
2021/07/24 01:36:21;;;;;;;8.43;5.60;;;;;;;;;;2056923;28;99956;-16
2021/07/24 01:37:22;;;;;;;7.35;4.80;;;;;;;;;;2048956;28;100030;-14
2021/07/24 01:38:25;;;;;;;6.50;5.20;;;;;;;;;;2057499;28;100442;-15
2021/07/24 01:39:35;;;;;;;6.40;5.18;;;;;;;;;;2065211;28;99955;-12
2021/07/24 01:40:39;;;;;;;7.80;5.55;;;;;;;;;;2057466;28;99961;-16
2021/07/24 01:41:45;;;;;;;7.85;4.97;;;;;;;;;;2057581;28;100020;-15
2021/07/24 01:42:47;;;;;;;7.53;5.65;;;;;;;;;;2057949;28;100159;-12
2021/07/24 01:43:48;;;;;;;6.72;5.20;;;;;;;;;;2057147;28;99955;-14
2021/07/24 01:44:50;;;;;;;6.78;4.82;;;;;;;;;;2057311;28;99993;-14
2021/07/24 01:45:53;;;;;;;6.20;5.13;;;;;;;;;;2056902;28;100484;-15
2021/07/24 01:46:57;;;;;;;5.75;4.93;;;;;;;;;;2057514;28;99964;-12
2021/07/24 01:48:23;;;;;;;8.82;4.72;;;;;;;;;;2058609;28;99928;-14
2021/07/24 01:53:32;;;;;;;7.63;4.60;;;;;;;;;;2064829;28;100068;-13
2021/07/24 01:54:43;;;;;;;8.10;5.50;;;;;;;;;;2057586;28;100011;-15
2021/07/24 01:55:56;;;;;;;5.88;4.65;;;;;;;;;;2065439;28;99908;-14
2021/07/24 01:57:03;;;;;;;5.35;4.80;;;;;;;;;;2065200;28;99948;-13
2021/07/24 01:58:06;;;;;;;7.68;5.20;;;;;;;;;;2065065;28;100263;-15
2021/07/24 01:59:22;;;;;;;7.13;4.70;;;;;;;;;;2058626;28;99954;-13
2021/07/24 02:00:23;;;;;;;7.57;4.75;;;;;;;;;;2065103;28;100032;-16
2021/07/24 02:01:34;;;;;;;6.45;4.82;;;;;;;;;;2065287;28;100025;-18
2021/07/24 02:02:36;;;;;;;7.22;4.55;;;;;;;;;;2056334;28;100095;-17
2021/07/24 02:03:42;;;;;;;5.05;4.55;;;;;;;;;;2065510;28;100081;-13
2021/07/24 02:04:58;;;;;;;5.60;4.50;;;;;;;;;;2065406;28;100334;-17
2021/07/24 02:06:01;;;;;;;6.13;5.15;;;;;;;;;;2065481;28;99806;-16
2021/07/24 02:07:02;;;;;;;8.70;4.97;;;;;;;;;;2057576;28;99930;-15
2021/07/24 02:08:21;;;;;;;5.75;4.72;;;;;;;;;;2065372;28;100185;-14
2021/07/24 02:09:23;;;;;;;6.82;5.13;;;;;;;;;;2056808;28;99901;-15
2021/07/24 02:10:32;;;;;;;8.48;5.28;;;;;;;;;;2058853;28;99885;-14
2021/07/24 02:11:37;;;;;;;7.38;4.72;;;;;;;;;;2065476;28;99863;-18
2021/07/24 02:12:38;;;;;;;6.50;4.68;;;;;;;;;;2048768;28;100014;-15
2021/07/24 02:13:40;;;;;;;6.20;5.05;;;;;;;;;;2049017;28;102050;-15
2021/07/24 02:14:46;;;;;;;5.60;4.55;;;;;;;;;;2057598;28;100055;-18
2021/07/24 02:15:53;;;;;;;6.00;4.80;;;;;;;;;;2058092;28;100160;-16
2021/07/24 02:16:55;;;;;;;6.07;4.70;;;;;;;;;;2048457;28;99955;-18
2021/07/24 02:18:05;;;;;;;9.13;4.97;;;;;;;;;;2051828;28;100055;-18
2021/07/24 02:19:07;;;;;;;7.40;4.70;;;;;;;;;;2057023;28;99987;-18
2021/07/24 02:20:20;;;;;;;5.85;4.57;;;;;;;;;;2058301;28;100017;-16
2021/07/24 02:21:21;;;;;;;6.05;4.63;;;;;;;;;;2057013;28;99900;-17
2021/07/24 02:22:25;;;;;;;7.97;5.00;;;;;;;;;;2064519;28;99991;-15
2021/07/24 02:23:29;;;;;;;6.55;4.32;;;;;;;;;;2064595;28;99934;-16
2021/07/24 02:24:30;;;;;;;6.10;4.90;;;;;;;;;;2056693;28;100002;-17
2021/07/24 02:25:33;;;;;;;5.93;4.70;;;;;;;;;;2056901;28;99894;-13
2021/07/24 02:26:41;;;;;;;5.35;4.30;;;;;;;;;;2057131;28;100017;-14
2021/07/24 02:27:46;;;;;;;6.10;4.47;;;;;;;;;;2064834;28;100295;-15
2021/07/24 02:28:48;;;;;;;5.68;4.93;;;;;;;;;;2065671;28;99961;-17
2021/07/24 02:29:48;;;;;;;;;;;;;;;;;;2066126;28;100173;-14
2021/07/24 02:30:57;;;;;;;5.95;4.53;;;;;;;;;;2065949;28;99898;-18
2021/07/24 02:31:58;;;;;;;7.03;4.97;;;;;;;;;;2064488;28;99939;-15
2021/07/24 02:32:59;;;;;;;;;;;;;;;;;;2057226;28;99874;-16
2021/07/24 02:34:01;;;;;;;5.50;4.50;;;;;;;;;;2048621;28;99954;-17
2021/07/24 02:35:07;;;;;;;9.43;4.95;;;;;;;;;;2056994;28;100045;-15
2021/07/24 02:36:13;;;;;;;6.23;5.20;;;;;;;;;;2065090;28;100421;-18
2021/07/24 02:37:14;;;;;;;;;;;;;;;;;;2065388;28;100018;-15
2021/07/24 02:38:17;;;;;;;6.93;4.82;;;;;;;;;;2056486;28;100066;-14
2021/07/24 02:39:21;;;;;;;4.53;4.13;;;;;;;;;;2057698;28;100191;-17
2021/07/24 02:40:24;;;;;;;6.57;5.13;;;;;;;;;;2064928;28;99969;-14
2021/07/24 02:41:41;;;;;;;6.50;4.43;;;;;;;;;;2050934;28;100110;-14
2021/07/24 02:42:43;;;;;;;6.00;4.57;;;;;;;;;;2058757;28;100029;-17
2021/07/24 02:43:44;;;;;;;5.70;4.90;;;;;;;;;;2064644;28;100009;-15
2021/07/24 02:44:46;;;;;;;6.78;4.80;;;;;;;;;;2065209;28;100101;-16
2021/07/24 02:45:47;;;;;;;6.55;4.75;;;;;;;;;;2056523;28;100157;-19
2021/07/24 02:46:49;;;;;;;7.53;5.20;;;;;;;;;;2048722;28;100339;-15
2021/07/24 02:47:57;;;;;;;7.53;4.15;;;;;;;;;;2057369;28;100082;-11
2021/07/24 02:48:58;;;;;;;6.70;4.47;;;;;;;;;;2056662;28;99816;-14
2021/07/24 02:50:03;;;;;;;7.28;4.68;;;;;;;;;;2065228;28;99975;-15
2021/07/24 02:51:04;;;;;;;9.15;5.25;;;;;;;;;;2065720;28;99902;-13
2021/07/24 02:52:06;;;;;;;7.78;4.40;;;;;;;;;;2065725;28;100000;-16
2021/07/24 02:53:09;;;;;;;6.70;4.65;;;;;;;;;;2064770;28;99988;-17
2021/07/24 02:54:11;;;;;;;7.45;4.75;;;;;;;;;;2056812;28;100077;-12
2021/07/24 02:55:13;;;;;;;6.45;4.32;;;;;;;;;;2048641;28;99937;-14
2021/07/24 02:56:15;;;;;;;7.88;4.30;;;;;;;;;;2048410;28;100308;-15
2021/07/24 02:57:16;;;;;;;5.28;4.43;;;;;;;;;;2056742;28;99963;-16
2021/07/24 02:58:17;;;;;;;6.68;4.28;;;;;;;;;;2065212;28;99971;-14
2021/07/24 02:59:20;;;;;;;5.63;4.35;;;;;;;;;;2064795;28;100055;-16
2021/07/24 03:00:24;;;;;;;6.53;4.30;;;;;;;;;;2065871;28;99902;-14
2021/07/24 03:01:25;;;;;;;5.82;4.35;;;;;;;;;;2065413;28;99953;-17
2021/07/24 03:02:26;;;;;;;5.75;4.10;;;;;;;;;;2065329;28;99916;-18
2021/07/24 03:03:27;;;;;;;4.93;4.28;;;;;;;;;;2065426;28;99829;-17
2021/07/24 03:04:28;;;;;;;;;;;;;;;;;;2065867;28;100033;-16
2021/07/24 03:05:29;;;;;;;5.60;4.53;;;;;;;;;;2065418;28;100011;-17
2021/07/24 03:06:30;;;;;;;6.13;4.65;;;;;;;;;;2065725;28;99831;-17
2021/07/24 03:07:31;;;;;;;;;;;;;;;;;;2066008;28;100121;-16
2021/07/24 03:08:32;;;;;;;5.03;3.67;;;;;;;;;;2065691;28;99999;-15
2021/07/24 03:09:33;;;;;;;4.90;4.35;;;;;;;;;;2065477;28;99889;-13
2021/07/24 03:10:33;;;;;;;;;;;;;;;;;;2065934;28;99899;-17
2021/07/24 03:11:37;;;;;;;6.05;4.53;;;;;;;;;;2065549;28;99983;-15
2021/07/24 03:12:38;;;;;;;;;;;;;;;;;;2065871;28;99903;-12
2021/07/24 03:13:39;;;;;;;6.30;4.30;;;;;;;;;;2065376;28;99843;-15
2021/07/24 03:14:40;;;;;;;5.50;4.13;;;;;;;;;;2065578;28;99778;-12
2021/07/24 03:15:41;;;;;;;6.25;4.25;;;;;;;;;;2065276;28;99830;-18
2021/07/24 03:16:42;;;;;;;;;;;;;;;;;;2065864;28;99787;-17
2021/07/24 03:17:42;;;;;;;5.85;4.30;;;;;;;;;;2065328;28;99918;-14
2021/07/24 03:18:43;;;;;;;5.15;4.53;;;;;;;;;;2065438;28;100232;-15
2021/07/24 03:19:44;;;;;;;;;;;;;;;;;;2065485;28;100676;-14
2021/07/24 03:20:45;;;;;;;5.35;4.57;;;;;;;;;;2065714;28;100027;-17
2021/07/24 03:21:46;;;;;;;6.57;4.55;;;;;;;;;;2065106;28;99930;-14
2021/07/24 03:22:47;;;;;;;;;;;;;;;;;;2065887;28;99929;-18
2021/07/24 03:23:47;;;;;;;5.82;4.43;;;;;;;;;;2065037;28;99981;-15
2021/07/24 03:24:49;;;;;;;5.45;4.38;;;;;;;;;;2065323;28;100393;-14
2021/07/24 03:25:49;;;;;;;;;;;;;;;;;;2065687;28;99917;-16
2021/07/24 03:26:50;;;;;;;4.10;3.70;;;;;;;;;;2065353;28;99960;-15
2021/07/24 03:27:51;;;;;;;5.95;4.20;;;;;;;;;;2064072;28;99957;-13
2021/07/24 03:28:52;;;;;;;6.88;4.85;;;;;;;;;;2064568;28;100092;-13
2021/07/24 03:29:53;;;;;;;;;;;;;;;;;;2065908;28;100194;-16
2021/07/24 03:30:54;;;;;;;7.15;4.35;;;;;;;;;;2065809;28;100003;-13
2021/07/24 03:31:55;;;;;;;4.32;3.72;;;;;;;;;;2064591;28;100071;-14
2021/07/24 03:32:56;;;;;;;;;;;;;;;;;;2065184;28;99861;-13
2021/07/24 03:33:57;;;;;;;5.82;4.35;;;;;;;;;;2065079;28;99933;-17
2021/07/24 03:34:58;;;;;;;4.90;4.05;;;;;;;;;;2066907;28;99806;-13
2021/07/24 03:35:59;;;;;;;;;;;;;;;;;;2067024;28;99974;-13
2021/07/24 03:37:00;;;;;;;4.97;4.30;;;;;;;;;;2066941;28;99864;-14
2021/07/24 03:38:01;;;;;;;;;;;;;;;;;;2067244;28;99807;-15
2021/07/24 03:39:03;;;;;;;6.13;4.05;;;;;;;;;;2066873;28;100075;-17
2021/07/24 03:40:05;;;;;;;8.80;4.53;;;;;;;;;;2066246;28;100045;-15
2021/07/24 03:41:06;;;;;;;5.95;4.32;;;;;;;;;;2058019;28;100443;-13
2021/07/24 03:42:07;;;;;;;4.63;3.88;;;;;;;;;;2066220;28;100193;-15
2021/07/24 03:43:07;;;;;;;;;;;;;;;;;;2067169;28;99878;-14
2021/07/24 03:44:08;;;;;;;6.75;4.32;;;;;;;;;;2065972;28;99902;-14
2021/07/24 03:45:09;;;;;;;6.30;4.32;;;;;;;;;;2066133;28;99923;-15
2021/07/24 03:46:18;;;;;;;6.50;4.45;;;;;;;;;;2067068;28;99774;-16
2021/07/24 03:47:22;;;;;;;7.50;4.22;;;;;;;;;;2066836;28;99825;-17
2021/07/24 03:48:23;;;;;;;6.80;4.20;;;;;;;;;;2066819;28;100021;-14
2021/07/24 03:49:23;;;;;;;;;;;;;;;;;;2067193;28;100005;-15
2021/07/24 03:50:24;;;;;;;7.05;4.85;;;;;;;;;;2066942;28;99974;-16
2021/07/24 03:51:25;;;;;;;4.50;3.70;;;;;;;;;;2065636;28;100170;-15
2021/07/24 03:52:26;;;;;;;7.97;4.10;;;;;;;;;;2057616;28;100067;-12
2021/07/24 03:53:27;;;;;;;7.00;4.53;;;;;;;;;;2065560;28;99998;-13
2021/07/24 03:54:28;;;;;;;;;;;;;;;;;;2066581;28;99976;-16
2021/07/24 03:55:29;;;;;;;4.35;3.78;;;;;;;;;;2066315;28;99842;-16
2021/07/24 03:56:30;;;;;;;5.30;4.35;;;;;;;;;;2066432;28;99879;-14
2021/07/24 03:57:31;;;;;;;;;;;;;;;;;;2066758;28;100136;-14
2021/07/24 03:58:32;;;;;;;4.35;3.90;;;;;;;;;;2066795;28;99964;-17
2021/07/24 03:59:33;;;;;;;5.28;3.97;;;;;;;;;;2066415;28;100180;-16
2021/07/24 04:00:39;;;;;;;6.13;4.25;;;;;;;;;;2066630;28;100029;-13
2021/07/24 04:01:43;;;;;;;5.22;4.22;;;;;;;;;;2066313;28;100029;-16
2021/07/24 04:02:44;;;;;;;7.63;4.72;;;;;;;;;;2066491;28;99950;-15
2021/07/24 04:03:45;;;;;;;5.90;4.50;;;;;;;;;;2066262;28;100051;-13
2021/07/24 04:04:50;;;;;;;;;;;;;;;;;;2066526;28;100149;-14
2021/07/24 04:05:52;;;;;;;6.38;4.63;;;;;;;;;;2065277;28;100163;-16
2021/07/24 04:06:55;;;;;;;5.50;4.30;;;;;;;;;;2065735;28;100005;-13
2021/07/24 04:07:55;;;;;;;7.28;4.30;;;;;;;;;;2066414;28;100225;-17
2021/07/24 04:08:57;;;;;;;;;;;;;;;;;;2066599;28;100028;-13
2021/07/24 04:09:58;;;;;;;5.45;4.13;;;;;;;;;;2065990;28;100030;-16
2021/07/24 04:10:59;;;;;;;6.75;4.10;;;;;;;;;;2066547;28;99960;-14
2021/07/24 04:12:00;;;;;;;;;;;;;;;;;;2066860;28;99894;-16
2021/07/24 04:13:03;;;;;;;6.88;4.25;;;;;;;;;;2066091;28;99844;-15
2021/07/24 04:14:04;;;;;;;4.70;3.90;;;;;;;;;;2066180;28;100356;-13
2021/07/24 04:15:06;;;;;;;5.40;4.38;;;;;;;;;;2065634;28;99964;-13
2021/07/24 04:16:07;;;;;;;4.57;3.80;;;;;;;;;;2065506;28;99947;-14
2021/07/24 04:17:07;;;;;;;;;;;;;;;;;;2066858;28;100236;-13
2021/07/24 04:18:09;;;;;;;6.53;4.20;;;;;;;;;;2066118;28;100065;-13
2021/07/24 04:19:10;;;;;;;5.20;3.63;;;;;;;;;;2065432;28;99980;-17
2021/07/24 04:20:11;;;;;;;5.55;3.97;;;;;;;;;;2065333;28;100177;-15
2021/07/24 04:21:13;;;;;;;5.82;4.03;;;;;;;;;;2064439;28;100119;-14
2021/07/24 04:22:14;;;;;;;6.03;4.28;;;;;;;;;;2064541;28;100157;-14
2021/07/24 04:23:15;;;;;;;7.82;4.50;;;;;;;;;;2064969;28;100207;-14
2021/07/24 04:24:18;;;;;;;5.22;4.03;;;;;;;;;;2065398;28;101385;-12
2021/07/24 04:25:19;;;;;;;6.85;4.45;;;;;;;;;;2064453;28;100227;-17
2021/07/24 04:26:23;;;;;;;5.22;4.07;;;;;;;;;;2056056;28;99880;-16
2021/07/24 04:27:28;;;;;;;8.38;4.57;;;;;;;;;;2064405;28;100027;-15
2021/07/24 04:28:29;;;;;;;5.55;3.90;;;;;;;;;;2064028;28;99950;-17
2021/07/24 04:29:29;;;;;;;;;;;;;;;;;;2063874;28;100104;-13
2021/07/24 04:30:32;;;;;;;7.90;4.38;;;;;;;;;;2064412;28;99903;-15
2021/07/24 04:31:34;;;;;;;4.80;3.90;;;;;;;;;;2065180;28;100469;-14
2021/07/24 04:32:35;;;;;;;7.40;4.55;;;;;;;;;;2065252;28;100032;-16
2021/07/24 04:33:36;;;;;;;6.57;4.50;;;;;;;;;;2064842;28;99995;-16
2021/07/24 04:34:38;;;;;;;6.63;4.00;;;;;;;;;;2064670;28;100257;-15
2021/07/24 04:35:48;;;;;;;;;;;;;;;;;;2065259;28;99814;-13
2021/07/24 04:36:49;;;;;;;8.63;4.70;;;;;;;;;;2065030;28;99826;-14
2021/07/24 04:37:50;;;;;;;;;;;;;;;;;;2065525;28;99715;-16
2021/07/24 04:38:51;;;;;;;6.78;4.22;;;;;;;;;;2064931;28;99960;-16
2021/07/24 04:39:51;;;;;;;6.10;4.10;;;;;;;;;;2064965;28;100168;-15
2021/07/24 04:40:52;;;;;;;;;;;;;;;;;;2065278;28;99961;-15
2021/07/24 04:41:53;;;;;;;7.45;4.47;;;;;;;;;;2064842;28;100012;-13
2021/07/24 04:42:54;;;;;;;7.22;4.35;;;;;;;;;;2064905;28;100128;-17
2021/07/24 04:43:55;;;;;;;;;;;;;;;;;;2065547;28;100167;-13
2021/07/24 04:44:56;;;;;;;7.45;4.70;;;;;;;;;;2064430;28;100048;-16
2021/07/24 04:45:57;;;;;;;5.82;4.45;;;;;;;;;;2064511;28;100079;-15
2021/07/24 04:46:58;;;;;;;6.70;4.10;;;;;;;;;;2064905;28;99945;-16
2021/07/24 04:47:59;;;;;;;;;;;;;;;;;;2065409;28;99822;-16
2021/07/24 04:48:59;;;;;;;9.40;4.75;;;;;;;;;;2065177;28;100108;-15
2021/07/24 04:50:00;;;;;;;6.85;4.25;;;;;;;;;;2065299;28;99799;-16
2021/07/24 04:51:01;;;;;;;5.38;4.18;;;;;;;;;;2064808;28;99981;-13
2021/07/24 04:52:02;;;;;;;;;;;;;;;;;;2065776;28;99809;-13
2021/07/24 04:53:03;;;;;;;6.72;4.60;;;;;;;;;;2064903;28;99987;-16
2021/07/24 04:54:06;;;;;;;6.38;4.30;;;;;;;;;;2064923;28;99977;-15
2021/07/24 04:55:07;;;;;;;6.07;4.28;;;;;;;;;;2062338;28;100010;-18
2021/07/24 04:56:08;;;;;;;7.03;4.60;;;;;;;;;;2063779;28;100144;-15
2021/07/24 04:57:10;;;;;;;6.20;4.35;;;;;;;;;;2064284;28;100039;-16
2021/07/24 04:58:11;;;;;;;6.88;4.50;;;;;;;;;;2064333;28;100033;-13
2021/07/24 04:59:13;;;;;;;6.43;4.40;;;;;;;;;;2064424;28;100036;-13
2021/07/24 05:00:14;;;;;;;5.72;4.47;;;;;;;;;;2064694;28;100160;-14
2021/07/24 05:01:18;;;;;;;6.63;4.55;;;;;;;;;;2064881;28;100020;-13
2021/07/24 05:02:20;;;;;;;6.40;4.38;;;;;;;;;;2064460;28;99784;-16
2021/07/24 05:03:21;;;;;;;6.00;4.10;;;;;;;;;;2065207;28;100031;-15
2021/07/24 05:04:22;;;;;;;;;;;;;;;;;;2065478;28;99975;-17
2021/07/24 05:05:23;;;;;;;5.82;4.45;;;;;;;;;;2065540;28;99800;-16
2021/07/24 05:06:24;;;;;;;6.75;4.57;;;;;;;;;;2064969;28;99940;-18
2021/07/24 05:07:27;;;;;;;6.85;4.53;;;;;;;;;;2065316;28;99954;-17
2021/07/24 05:08:28;;;;;;;7.60;4.80;;;;;;;;;;2064880;28;99939;-15
2021/07/24 05:09:29;;;;;;;8.25;4.85;;;;;;;;;;2065160;28;99971;-22
2021/07/24 05:10:31;;;;;;;5.82;4.53;;;;;;;;;;2065168;28;100032;-17
2021/07/24 05:11:34;;;;;;;6.20;4.32;;;;;;;;;;2065436;28;99818;-16
2021/07/24 05:12:36;;;;;;;7.50;5.07;;;;;;;;;;2065059;28;99927;-16
2021/07/24 05:13:37;;;;;;;6.82;4.80;;;;;;;;;;2065027;28;99945;-13
2021/07/24 05:14:38;;;;;;;;;;;;;;;;;;2065071;28;99971;-14
2021/07/24 05:15:39;;;;;;;9.52;5.30;;;;;;;;;;2064569;28;99852;-16
2021/07/24 05:16:40;;;;;;;;;;;;;;;;;;2065238;28;100057;-15
2021/07/24 05:17:41;;;;;;;8.80;5.00;;;;;;;;;;2064727;28;99794;-16
2021/07/24 05:18:42;;;;;;;10.30;5.38;;;;;;;;;;2055865;28;100014;-17
2021/07/24 05:19:45;;;;;;;7.78;5.03;;;;;;;;;;2064673;28;99805;-18
2021/07/24 05:20:46;;;;;;;6.85;5.20;;;;;;;;;;2055725;28;100504;-14
2021/07/24 05:21:47;;;;;;;9.15;5.30;;;;;;;;;;2064302;28;100073;-16
2021/07/24 05:22:48;;;;;;;;;;;;;;;;;;2065146;28;100017;-15
2021/07/24 05:23:49;;;;;;;7.13;4.97;;;;;;;;;;2065167;28;100109;-17
2021/07/24 05:24:50;;;;;;;9.25;5.03;;;;;;;;;;2064438;28;99873;-13
2021/07/24 05:25:50;;;;;;;;;;;;;;;;;;2064942;28;100124;-17
2021/07/24 05:26:52;;;;;;;8.57;4.85;;;;;;;;;;2064534;28;99911;-13
2021/07/24 05:27:53;;;;;;;8.38;5.40;;;;;;;;;;2064829;28;99815;-14
2021/07/24 05:28:53;;;;;;;;;;;;;;;;;;2065373;28;99882;-14
2021/07/24 05:29:54;;;;;;;7.10;4.97;;;;;;;;;;2065304;28;100145;-18
2021/07/24 05:30:55;;;;;;;;;;;;;;;;;;2065023;28;99904;-15
2021/07/24 05:31:56;;;;;;;7.53;4.90;;;;;;;;;;2065049;28;100006;-13
2021/07/24 05:32:57;;;;;;;6.28;4.97;;;;;;;;;;2064963;28;99956;-16
2021/07/24 05:33:58;;;;;;;7.40;5.88;;;;;;;;;;2064952;28;99874;-16
2021/07/24 05:34:58;;;;;;;;;;;;;;;;;;2064465;28;100089;-17
2021/07/24 05:36:00;;;;;;;8.47;5.53;;;;;;;;;;2064504;28;99935;-16
2021/07/24 05:37:01;;;;;;;8.65;5.43;;;;;;;;;;2064819;28;99851;-14
2021/07/24 05:38:02;;;;;;;;;;;;;;;;;;2065775;28;99832;-12
2021/07/24 05:39:03;;;;;;;5.78;4.70;;;;;;;;;;2063997;28;100654;-15
2021/07/24 05:40:05;;;;;;;8.30;5.38;;;;;;;;;;2056282;28;100015;-16
2021/07/24 05:41:06;;;;;;;8.57;5.47;;;;;;;;;;2056151;28;100106;-12
2021/07/24 05:42:07;;;;;;;7.53;5.15;;;;;;;;;;2064317;28;100083;-12
2021/07/24 05:43:08;;;;;;;;;;;;;;;;;;2065437;28;100057;-17
2021/07/24 05:44:12;;;;;;;6.97;5.25;;;;;;;;;;2065414;28;100036;-15
2021/07/24 05:45:12;;;;;;;6.35;4.90;;;;;;;;;;2064947;28;100222;-17
2021/07/24 05:46:13;;;;;;;;;;;;;;;;;;2065150;28;99919;-14
2021/07/24 05:47:14;;;;;;;5.67;4.97;;;;;;;;;;2064688;28;100272;-18
2021/07/24 05:48:16;;;;;;;;;;;;;;;;;;2065298;28;100069;-18
2021/07/24 05:49:17;;;;;;;7.95;4.97;;;;;;;;;;2064986;28;100063;-13
2021/07/24 05:50:18;;;;;;;7.10;4.72;;;;;;;;;;2064847;28;100069;-14
2021/07/24 05:51:18;;;;;;;;;;;;;;;;;;2065234;28;99839;-13
2021/07/24 05:52:19;;;;;;;8.23;5.20;;;;;;;;;;2065159;28;99965;-17
2021/07/24 05:53:20;;;;;;;5.82;4.80;;;;;;;;;;2064804;28;99953;-17
2021/07/24 05:54:22;;;;;;;;;;;;;;;;;;2064980;28;99967;-16
2021/07/24 05:55:23;;;;;;;7.88;4.88;;;;;;;;;;2064422;28;99959;-13
2021/07/24 05:56:24;;;;;;;;;;;;;;;;;;2065011;28;99936;-16
2021/07/24 05:57:25;;;;;;;6.22;4.45;;;;;;;;;;2064118;28;100094;-12
2021/07/24 05:58:26;;;;;;;;;;;;;;;;;;2065233;28;99859;-15
2021/07/24 05:59:27;;;;;;;7.20;5.00;;;;;;;;;;2064959;28;99878;-16
2021/07/24 06:00:28;;;;;;;5.63;4.93;;;;;;;;;;2064728;28;99976;-15
2021/07/24 06:01:28;;;;;;;;;;;;;;;;;;2065305;28;100187;-12
2021/07/24 06:02:29;;;;;;;6.90;4.72;;;;;;;;;;2064639;28;100188;-16
2021/07/24 06:03:30;;;;;;;;;;;;;;;;;;2065056;28;100054;-15
2021/07/24 06:04:32;;;;;;;5.88;4.60;;;;;;;;;;2064733;28;99917;-13
2021/07/24 06:05:34;;;;;;;7.32;4.97;;;;;;;;;;2064592;28;99907;-15
2021/07/24 06:06:35;;;;;;;6.07;4.85;;;;;;;;;;2064369;28;100168;-16
2021/07/24 06:07:36;;;;;;;6.68;4.95;;;;;;;;;;2064690;28;99913;-14
2021/07/24 06:08:37;;;;;;;;;;;;;;;;;;2064772;28;99902;-17
2021/07/24 06:09:38;;;;;;;5.05;4.55;;;;;;;;;;2064995;28;99931;-14
2021/07/24 06:10:39;;;;;;;6.72;4.82;;;;;;;;;;2063847;28;100018;-16
2021/07/24 06:11:40;;;;;;;6.40;4.95;;;;;;;;;;2064223;28;99749;-14
2021/07/24 06:12:41;;;;;;;;;;;;;;;;;;2065046;28;99838;-13
2021/07/24 06:13:42;;;;;;;7.47;4.78;;;;;;;;;;2064699;28;99844;-13
2021/07/24 06:14:43;;;;;;;6.03;4.72;;;;;;;;;;2064761;28;99854;-18
2021/07/24 06:15:43;;;;;;;;;;;;;;;;;;2064391;28;99989;-15
2021/07/24 06:16:44;;;;;;;8.77;4.72;;;;;;;;;;2064196;28;99980;-15
2021/07/24 06:17:45;;;;;;;;;;;;;;;;;;2064343;28;99951;-16
2021/07/24 06:18:46;;;;;;;5.18;4.32;;;;;;;;;;2064884;28;99952;-17
2021/07/24 06:19:47;;;;;;;6.50;4.50;;;;;;;;;;2064975;28;99906;-17
2021/07/24 06:20:48;;;;;;;;;;;;;;;;;;2065154;28;99924;-14
2021/07/24 06:21:49;;;;;;;;;;;;;;;;;;2065127;28;99817;-14
2021/07/24 06:22:50;;;;;;;5.00;4.40;;;;;;;;;;2064798;28;99762;-16
2021/07/24 06:23:51;;;;;;;;;;;;;;;;;;2065174;28;99879;-14